sensor_id;sensor_type;location;lat;lon;timestamp;pressure;altitude;pressure_sealevel;temperature;humidity
43838;BME280;65998;46.256;7.534;2023-02-03T00:01:56;88113.59;;;-0.88;100.00
43838;BME280;65998;46.256;7.534;2023-02-03T00:04:22;88110.78;;;-0.77;100.00
43838;BME280;65998;46.256;7.534;2023-02-03T00:06:48;88106.53;;;-0.66;100.00
43838;BME280;65998;46.256;7.534;2023-02-03T00:09:15;88118.81;;;-0.92;100.00
43838;BME280;65998;46.256;7.534;2023-02-03T00:11:41;88127.00;;;-0.90;100.00
43838;BME280;65998;46.256;7.534;2023-02-03T00:14:07;88118.00;;;-0.52;100.00
43838;BME280;65998;46.256;7.534;2023-02-03T00:16:33;88123.44;;;-0.66;100.00
43838;BME280;65998;46.256;7.534;2023-02-03T00:18:59;88121.75;;;-0.73;100.00
43838;BME280;65998;46.256;7.534;2023-02-03T00:21:25;88116.44;;;-0.12;100.00
43838;BME280;65998;46.256;7.534;2023-02-03T00:23:51;88117.09;;;0.03;100.00
43838;BME280;65998;46.256;7.534;2023-02-03T00:26:19;88109.28;;;-0.05;100.00
43838;BME280;65998;46.256;7.534;2023-02-03T00:28:45;88110.84;;;-0.16;100.00
43838;BME280;65998;46.256;7.534;2023-02-03T00:31:14;88113.53;;;-0.16;100.00
43838;BME280;65998;46.256;7.534;2023-02-03T00:33:40;88121.19;;;-0.55;100.00
43838;BME280;65998;46.256;7.534;2023-02-03T00:36:06;88122.41;;;-0.29;100.00
43838;BME280;65998;46.256;7.534;2023-02-03T00:38:32;88133.78;;;-0.46;100.00
43838;BME280;65998;46.256;7.534;2023-02-03T00:40:58;88118.09;;;-0.50;100.00
43838;BME280;65998;46.256;7.534;2023-02-03T00:43:24;88129.16;;;-0.44;100.00
43838;BME280;65998;46.256;7.534;2023-02-03T00:48:41;88131.81;;;-1.30;100.00
43838;BME280;65998;46.256;7.534;2023-02-03T00:51:07;88128.22;;;-0.64;100.00
43838;BME280;65998;46.256;7.534;2023-02-03T00:53:33;88128.84;;;-0.66;100.00
43838;BME280;65998;46.256;7.534;2023-02-03T00:55:58;88128.13;;;-0.37;100.00
43838;BME280;65998;46.256;7.534;2023-02-03T00:58:24;88138.84;;;-0.39;100.00
43838;BME280;65998;46.256;7.534;2023-02-03T01:00:50;88137.81;;;-0.61;100.00
43838;BME280;65998;46.256;7.534;2023-02-03T01:03:16;88142.06;;;-0.42;100.00
43838;BME280;65998;46.256;7.534;2023-02-03T01:05:42;88151.69;;;-0.53;100.00
43838;BME280;65998;46.256;7.534;2023-02-03T01:08:08;88149.81;;;-0.64;100.00
43838;BME280;65998;46.256;7.534;2023-02-03T01:10:34;88147.84;;;-0.77;100.00
43838;BME280;65998;46.256;7.534;2023-02-03T01:13:02;88148.09;;;-0.57;100.00
43838;BME280;65998;46.256;7.534;2023-02-03T01:15:27;88151.88;;;-0.92;100.00
43838;BME280;65998;46.256;7.534;2023-02-03T01:17:53;88146.06;;;-0.86;100.00
43838;BME280;65998;46.256;7.534;2023-02-03T01:20:19;88138.59;;;-0.58;100.00
43838;BME280;65998;46.256;7.534;2023-02-03T01:22:46;88142.34;;;-0.79;100.00
43838;BME280;65998;46.256;7.534;2023-02-03T01:25:12;88146.16;;;-0.84;100.00
43838;BME280;65998;46.256;7.534;2023-02-03T01:27:38;88147.72;;;-0.66;100.00
43838;BME280;65998;46.256;7.534;2023-02-03T01:30:04;88147.91;;;-0.61;100.00
43838;BME280;65998;46.256;7.534;2023-02-03T01:32:30;88152.44;;;-0.80;100.00
43838;BME280;65998;46.256;7.534;2023-02-03T01:34:56;88144.75;;;-0.72;100.00
43838;BME280;65998;46.256;7.534;2023-02-03T01:37:22;88147.19;;;-0.91;100.00
43838;BME280;65998;46.256;7.534;2023-02-03T01:39:48;88138.78;;;-0.84;100.00
43838;BME280;65998;46.256;7.534;2023-02-03T01:42:14;88133.44;;;-0.68;100.00
43838;BME280;65998;46.256;7.534;2023-02-03T01:44:42;88134.00;;;-0.56;100.00
43838;BME280;65998;46.256;7.534;2023-02-03T01:47:15;88131.44;;;-0.68;100.00
43838;BME280;65998;46.256;7.534;2023-02-03T01:49:44;88132.34;;;-0.77;100.00
43838;BME280;65998;46.256;7.534;2023-02-03T01:52:12;88130.00;;;-0.98;100.00
43838;BME280;65998;46.256;7.534;2023-02-03T01:54:39;88135.59;;;-1.08;100.00
43838;BME280;65998;46.256;7.534;2023-02-03T01:57:19;88143.38;;;-1.00;100.00
43838;BME280;65998;46.256;7.534;2023-02-03T01:59:46;88148.88;;;-0.98;100.00
43838;BME280;65998;46.256;7.534;2023-02-03T02:02:13;88150.47;;;-0.93;100.00
43838;BME280;65998;46.256;7.534;2023-02-03T02:04:42;88148.56;;;-0.77;100.00
43838;BME280;65998;46.256;7.534;2023-02-03T02:07:11;88151.59;;;-0.55;100.00
43838;BME280;65998;46.256;7.534;2023-02-03T02:09:37;88155.84;;;-0.79;100.00
43838;BME280;65998;46.256;7.534;2023-02-03T02:12:04;88155.75;;;-1.09;100.00
43838;BME280;65998;46.256;7.534;2023-02-03T02:14:29;88150.16;;;-1.13;100.00
43838;BME280;65998;46.256;7.534;2023-02-03T02:16:58;88152.84;;;-0.72;100.00
43838;BME280;65998;46.256;7.534;2023-02-03T02:22:13;88139.06;;;-0.48;100.00
43838;BME280;65998;46.256;7.534;2023-02-03T02:30:38;88141.13;;;-0.62;100.00
43838;BME280;65998;46.256;7.534;2023-02-03T02:33:41;88146.22;;;-0.69;100.00
43838;BME280;65998;46.256;7.534;2023-02-03T02:38:37;88140.13;;;-0.10;100.00
43838;BME280;65998;46.256;7.534;2023-02-03T02:44:08;88147.88;;;-1.32;100.00
43838;BME280;65998;46.256;7.534;2023-02-03T02:46:30;88140.38;;;-1.75;100.00
43838;BME280;65998;46.256;7.534;2023-02-03T02:49:00;88151.88;;;-1.47;100.00
43838;BME280;65998;46.256;7.534;2023-02-03T02:51:28;88142.78;;;-1.12;100.00
43838;BME280;65998;46.256;7.534;2023-02-03T02:53:55;88152.28;;;-0.98;100.00
43838;BME280;65998;46.256;7.534;2023-02-03T02:56:24;88154.06;;;-0.88;100.00
43838;BME280;65998;46.256;7.534;2023-02-03T02:58:50;88159.66;;;-0.84;100.00
43838;BME280;65998;46.256;7.534;2023-02-03T03:01:18;88159.56;;;-1.00;100.00
43838;BME280;65998;46.256;7.534;2023-02-03T03:03:44;88161.88;;;-0.94;100.00
43838;BME280;65998;46.256;7.534;2023-02-03T03:06:32;88155.56;;;-0.85;100.00
43838;BME280;65998;46.256;7.534;2023-02-03T03:09:14;88161.34;;;-0.34;100.00
43838;BME280;65998;46.256;7.534;2023-02-03T03:11:45;88163.94;;;-0.36;100.00
43838;BME280;65998;46.256;7.534;2023-02-03T03:14:13;88168.59;;;-0.23;100.00
43838;BME280;65998;46.256;7.534;2023-02-03T03:16:40;88172.31;;;-0.30;100.00
43838;BME280;65998;46.256;7.534;2023-02-03T03:19:18;88175.13;;;-0.28;100.00
43838;BME280;65998;46.256;7.534;2023-02-03T03:21:55;88174.38;;;-0.15;100.00
43838;BME280;65998;46.256;7.534;2023-02-03T03:24:30;88176.50;;;-0.56;100.00
43838;BME280;65998;46.256;7.534;2023-02-03T03:27:17;88192.34;;;-0.35;100.00
43838;BME280;65998;46.256;7.534;2023-02-03T03:32:16;88191.44;;;-0.40;100.00
43838;BME280;65998;46.256;7.534;2023-02-03T03:34:42;88197.88;;;-0.47;100.00
43838;BME280;65998;46.256;7.534;2023-02-03T03:42:11;88187.59;;;-0.21;100.00
43838;BME280;65998;46.256;7.534;2023-02-03T03:44:44;88190.56;;;-0.44;100.00
43838;BME280;65998;46.256;7.534;2023-02-03T03:47:16;88187.59;;;-0.64;100.00
43838;BME280;65998;46.256;7.534;2023-02-03T03:49:44;88185.47;;;-0.52;100.00
43838;BME280;65998;46.256;7.534;2023-02-03T03:52:13;88185.81;;;-0.73;100.00
43838;BME280;65998;46.256;7.534;2023-02-03T03:54:41;88191.63;;;-0.79;100.00
43838;BME280;65998;46.256;7.534;2023-02-03T03:57:11;88196.25;;;-0.38;100.00
43838;BME280;65998;46.256;7.534;2023-02-03T03:59:40;88203.41;;;-0.58;100.00
43838;BME280;65998;46.256;7.534;2023-02-03T04:02:08;88196.41;;;-0.63;100.00
43838;BME280;65998;46.256;7.534;2023-02-03T04:04:35;88201.31;;;-0.74;100.00
43838;BME280;65998;46.256;7.534;2023-02-03T04:07:02;88208.91;;;-0.56;100.00
43838;BME280;65998;46.256;7.534;2023-02-03T04:09:28;88206.44;;;0.07;100.00
43838;BME280;65998;46.256;7.534;2023-02-03T04:11:53;88201.75;;;-0.07;100.00
43838;BME280;65998;46.256;7.534;2023-02-03T04:14:33;88199.09;;;-0.63;100.00
43838;BME280;65998;46.256;7.534;2023-02-03T04:16:59;88201.22;;;-0.89;100.00
43838;BME280;65998;46.256;7.534;2023-02-03T04:19:26;88204.47;;;-0.50;100.00
43838;BME280;65998;46.256;7.534;2023-02-03T04:21:52;88196.66;;;-0.44;100.00
43838;BME280;65998;46.256;7.534;2023-02-03T04:24:18;88197.44;;;-0.98;100.00
43838;BME280;65998;46.256;7.534;2023-02-03T04:26:43;88203.94;;;-0.89;100.00
43838;BME280;65998;46.256;7.534;2023-02-03T04:29:09;88201.44;;;-0.99;100.00
43838;BME280;65998;46.256;7.534;2023-02-03T04:31:35;88208.31;;;-1.10;100.00
43838;BME280;65998;46.256;7.534;2023-02-03T04:34:03;88200.84;;;-0.98;100.00
43838;BME280;65998;46.256;7.534;2023-02-03T04:36:29;88193.25;;;-1.01;100.00
43838;BME280;65998;46.256;7.534;2023-02-03T04:38:55;88185.41;;;-0.68;100.00
43838;BME280;65998;46.256;7.534;2023-02-03T04:41:20;88184.19;;;-0.51;100.00
43838;BME280;65998;46.256;7.534;2023-02-03T04:43:46;88192.22;;;-0.67;100.00
43838;BME280;65998;46.256;7.534;2023-02-03T04:46:12;88188.31;;;-0.77;100.00
43838;BME280;65998;46.256;7.534;2023-02-03T04:48:38;88181.09;;;-0.59;100.00
43838;BME280;65998;46.256;7.534;2023-02-03T04:51:04;88182.16;;;-0.37;100.00
43838;BME280;65998;46.256;7.534;2023-02-03T04:53:31;88175.78;;;-0.57;100.00
43838;BME280;65998;46.256;7.534;2023-02-03T04:55:57;88180.38;;;-0.46;100.00
43838;BME280;65998;46.256;7.534;2023-02-03T04:58:25;88188.28;;;-0.50;100.00
43838;BME280;65998;46.256;7.534;2023-02-03T05:00:52;88190.00;;;-0.56;100.00
43838;BME280;65998;46.256;7.534;2023-02-03T05:03:18;88177.84;;;-0.99;100.00
43838;BME280;65998;46.256;7.534;2023-02-03T05:05:43;88180.84;;;-0.92;100.00
43838;BME280;65998;46.256;7.534;2023-02-03T05:08:10;88176.19;;;-0.49;100.00
43838;BME280;65998;46.256;7.534;2023-02-03T05:10:35;88179.16;;;-0.13;100.00
43838;BME280;65998;46.256;7.534;2023-02-03T05:13:01;88188.00;;;-0.26;100.00
43838;BME280;65998;46.256;7.534;2023-02-03T05:15:27;88178.31;;;-0.61;100.00
43838;BME280;65998;46.256;7.534;2023-02-03T05:17:53;88189.22;;;-0.73;100.00
43838;BME280;65998;46.256;7.534;2023-02-03T05:20:19;88182.53;;;-0.28;100.00
43838;BME280;65998;46.256;7.534;2023-02-03T05:22:45;88171.75;;;-0.13;100.00
43838;BME280;65998;46.256;7.534;2023-02-03T05:25:11;88168.56;;;-0.39;100.00
43838;BME280;65998;46.256;7.534;2023-02-03T05:27:37;88162.59;;;-0.51;100.00
43838;BME280;65998;46.256;7.534;2023-02-03T05:30:04;88165.19;;;-0.23;100.00
43838;BME280;65998;46.256;7.534;2023-02-03T05:32:30;88160.59;;;-0.50;100.00
43838;BME280;65998;46.256;7.534;2023-02-03T05:34:56;88162.78;;;-0.47;100.00
43838;BME280;65998;46.256;7.534;2023-02-03T05:37:22;88170.13;;;-0.63;100.00
43838;BME280;65998;46.256;7.534;2023-02-03T05:39:50;88174.13;;;-0.64;100.00
43838;BME280;65998;46.256;7.534;2023-02-03T05:42:16;88176.84;;;-0.78;100.00
43838;BME280;65998;46.256;7.534;2023-02-03T05:44:42;88168.53;;;-0.68;100.00
43838;BME280;65998;46.256;7.534;2023-02-03T05:47:08;88165.13;;;-0.69;100.00
43838;BME280;65998;46.256;7.534;2023-02-03T05:49:34;88168.03;;;-0.78;100.00
43838;BME280;65998;46.256;7.534;2023-02-03T05:52:00;88179.53;;;-0.78;100.00
43838;BME280;65998;46.256;7.534;2023-02-03T05:54:25;88173.47;;;-0.92;100.00
43838;BME280;65998;46.256;7.534;2023-02-03T05:56:51;88167.88;;;-0.96;100.00
43838;BME280;65998;46.256;7.534;2023-02-03T05:59:17;88168.66;;;-0.93;100.00
43838;BME280;65998;46.256;7.534;2023-02-03T06:01:43;88166.78;;;-0.48;100.00
43838;BME280;65998;46.256;7.534;2023-02-03T06:04:09;88155.78;;;-0.22;100.00
43838;BME280;65998;46.256;7.534;2023-02-03T06:06:35;88161.78;;;-0.53;100.00
43838;BME280;65998;46.256;7.534;2023-02-03T06:09:03;88164.63;;;-0.65;100.00
43838;BME280;65998;46.256;7.534;2023-02-03T06:11:29;88152.81;;;-0.58;100.00
43838;BME280;65998;46.256;7.534;2023-02-03T06:13:55;88153.38;;;-0.89;100.00
43838;BME280;65998;46.256;7.534;2023-02-03T06:16:23;88154.38;;;-1.10;100.00
43838;BME280;65998;46.256;7.534;2023-02-03T06:18:52;88156.81;;;-0.59;100.00
43838;BME280;65998;46.256;7.534;2023-02-03T06:21:19;88152.22;;;-0.70;100.00
43838;BME280;65998;46.256;7.534;2023-02-03T06:23:46;88152.38;;;-0.95;100.00
43838;BME280;65998;46.256;7.534;2023-02-03T06:26:12;88158.56;;;-1.20;100.00
43838;BME280;65998;46.256;7.534;2023-02-03T06:28:38;88162.38;;;-0.98;100.00
43838;BME280;65998;46.256;7.534;2023-02-03T06:31:07;88159.97;;;-0.92;100.00
43838;BME280;65998;46.256;7.534;2023-02-03T06:33:32;88165.25;;;-1.21;100.00
43838;BME280;65998;46.256;7.534;2023-02-03T06:35:59;88172.38;;;-1.01;100.00
43838;BME280;65998;46.256;7.534;2023-02-03T06:38:24;88170.16;;;-1.18;100.00
43838;BME280;65998;46.256;7.534;2023-02-03T06:40:50;88170.03;;;-1.06;100.00
43838;BME280;65998;46.256;7.534;2023-02-03T06:43:16;88171.34;;;-1.07;100.00
43838;BME280;65998;46.256;7.534;2023-02-03T06:45:45;88179.75;;;-1.01;100.00
43838;BME280;65998;46.256;7.534;2023-02-03T06:48:12;88172.78;;;-0.49;100.00
43838;BME280;65998;46.256;7.534;2023-02-03T06:50:37;88167.44;;;-0.34;100.00
43838;BME280;65998;46.256;7.534;2023-02-03T06:53:04;88179.91;;;-0.70;100.00
43838;BME280;65998;46.256;7.534;2023-02-03T06:55:29;88187.28;;;-0.56;100.00
43838;BME280;65998;46.256;7.534;2023-02-03T06:57:55;88190.53;;;-0.74;100.00
43838;BME280;65998;46.256;7.534;2023-02-03T07:00:21;88188.94;;;-0.79;100.00
43838;BME280;65998;46.256;7.534;2023-02-03T07:02:54;88191.13;;;-0.75;100.00
43838;BME280;65998;46.256;7.534;2023-02-03T07:05:20;88193.25;;;-0.87;100.00
43838;BME280;65998;46.256;7.534;2023-02-03T07:07:46;88196.63;;;-0.73;100.00
43838;BME280;65998;46.256;7.534;2023-02-03T07:10:12;88189.41;;;-0.69;100.00
43838;BME280;65998;46.256;7.534;2023-02-03T07:12:38;88195.19;;;-0.60;100.00
43838;BME280;65998;46.256;7.534;2023-02-03T07:15:04;88206.81;;;-0.85;100.00
43838;BME280;65998;46.256;7.534;2023-02-03T07:17:30;88207.09;;;-0.66;100.00
43838;BME280;65998;46.256;7.534;2023-02-03T07:19:56;88203.22;;;-1.17;100.00
43838;BME280;65998;46.256;7.534;2023-02-03T07:22:22;88209.81;;;-0.79;100.00
43838;BME280;65998;46.256;7.534;2023-02-03T07:24:47;88209.59;;;-1.11;100.00
43838;BME280;65998;46.256;7.534;2023-02-03T07:27:13;88204.31;;;-1.09;100.00
43838;BME280;65998;46.256;7.534;2023-02-03T07:29:39;88205.81;;;-1.19;100.00
43838;BME280;65998;46.256;7.534;2023-02-03T07:32:05;88201.91;;;-1.44;100.00
43838;BME280;65998;46.256;7.534;2023-02-03T07:34:31;88200.84;;;-0.98;100.00
43838;BME280;65998;46.256;7.534;2023-02-03T07:36:57;88210.03;;;-0.75;100.00
43838;BME280;65998;46.256;7.534;2023-02-03T07:39:23;88203.72;;;-0.66;100.00
43838;BME280;65998;46.256;7.534;2023-02-03T07:41:49;88212.63;;;-0.91;100.00
43838;BME280;65998;46.256;7.534;2023-02-03T07:44:14;88213.91;;;-1.19;100.00
43838;BME280;65998;46.256;7.534;2023-02-03T07:46:40;88209.63;;;-0.83;100.00
43838;BME280;65998;46.256;7.534;2023-02-03T07:49:09;88205.72;;;-0.94;100.00
43838;BME280;65998;46.256;7.534;2023-02-03T07:51:36;88215.53;;;-0.87;100.00
43838;BME280;65998;46.256;7.534;2023-02-03T07:54:01;88210.03;;;-0.89;100.00
43838;BME280;65998;46.256;7.534;2023-02-03T07:56:28;88212.13;;;-0.74;100.00
43838;BME280;65998;46.256;7.534;2023-02-03T07:58:55;88225.72;;;-0.72;100.00
43838;BME280;65998;46.256;7.534;2023-02-03T08:01:21;88217.19;;;-0.52;100.00
43838;BME280;65998;46.256;7.534;2023-02-03T08:03:46;88221.00;;;-0.57;100.00
43838;BME280;65998;46.256;7.534;2023-02-03T08:06:12;88220.97;;;-0.44;100.00
43838;BME280;65998;46.256;7.534;2023-02-03T08:08:38;88226.88;;;-0.47;100.00
43838;BME280;65998;46.256;7.534;2023-02-03T08:11:06;88226.34;;;-0.30;100.00
43838;BME280;65998;46.256;7.534;2023-02-03T08:13:32;88219.47;;;-0.47;100.00
43838;BME280;65998;46.256;7.534;2023-02-03T08:15:58;88225.75;;;-0.42;100.00
43838;BME280;65998;46.256;7.534;2023-02-03T08:18:24;88216.97;;;-0.43;100.00
43838;BME280;65998;46.256;7.534;2023-02-03T08:20:50;88225.09;;;-0.70;100.00
43838;BME280;65998;46.256;7.534;2023-02-03T08:23:15;88218.69;;;-0.49;100.00
43838;BME280;65998;46.256;7.534;2023-02-03T08:25:42;88214.66;;;-0.35;100.00
43838;BME280;65998;46.256;7.534;2023-02-03T08:28:07;88225.19;;;-0.11;100.00
43838;BME280;65998;46.256;7.534;2023-02-03T08:30:33;88222.84;;;-0.03;100.00
43838;BME280;65998;46.256;7.534;2023-02-03T08:32:59;88226.47;;;0.02;100.00
43838;BME280;65998;46.256;7.534;2023-02-03T08:35:25;88226.06;;;-0.07;100.00
43838;BME280;65998;46.256;7.534;2023-02-03T08:37:50;88224.13;;;-0.20;100.00
43838;BME280;65998;46.256;7.534;2023-02-03T08:40:16;88226.34;;;0.13;100.00
43838;BME280;65998;46.256;7.534;2023-02-03T08:42:42;88222.91;;;-1.15;100.00
43838;BME280;65998;46.256;7.534;2023-02-03T08:45:08;88224.88;;;-1.43;100.00
43838;BME280;65998;46.256;7.534;2023-02-03T08:47:34;88217.53;;;-0.87;100.00
43838;BME280;65998;46.256;7.534;2023-02-03T08:50:02;88223.25;;;-1.48;100.00
43838;BME280;65998;46.256;7.534;2023-02-03T08:52:28;88214.41;;;-1.76;100.00
43838;BME280;65998;46.256;7.534;2023-02-03T08:54:54;88218.31;;;-2.04;100.00
43838;BME280;65998;46.256;7.534;2023-02-03T08:57:20;88210.44;;;-1.75;100.00
43838;BME280;65998;46.256;7.534;2023-02-03T08:59:46;88209.63;;;-1.77;100.00
43838;BME280;65998;46.256;7.534;2023-02-03T09:02:15;88212.09;;;-1.42;100.00
43838;BME280;65998;46.256;7.534;2023-02-03T09:04:42;88208.50;;;-1.33;100.00
43838;BME280;65998;46.256;7.534;2023-02-03T09:07:07;88206.09;;;-1.41;100.00
43838;BME280;65998;46.256;7.534;2023-02-03T09:09:33;88208.47;;;-0.51;100.00
43838;BME280;65998;46.256;7.534;2023-02-03T09:11:59;88202.63;;;-0.02;100.00
43838;BME280;65998;46.256;7.534;2023-02-03T09:14:27;88203.13;;;-0.78;100.00
43838;BME280;65998;46.256;7.534;2023-02-03T09:16:53;88197.34;;;-0.86;100.00
43838;BME280;65998;46.256;7.534;2023-02-03T09:19:20;88203.25;;;-1.04;100.00
43838;BME280;65998;46.256;7.534;2023-02-03T09:21:46;88204.53;;;-0.91;100.00
43838;BME280;65998;46.256;7.534;2023-02-03T09:24:14;88207.03;;;-0.81;100.00
43838;BME280;65998;46.256;7.534;2023-02-03T09:26:39;88207.44;;;-0.87;100.00
43838;BME280;65998;46.256;7.534;2023-02-03T09:29:05;88216.41;;;-0.82;100.00
43838;BME280;65998;46.256;7.534;2023-02-03T09:31:32;88210.50;;;-0.22;100.00
43838;BME280;65998;46.256;7.534;2023-02-03T09:33:58;88204.03;;;0.28;100.00
43838;BME280;65998;46.256;7.534;2023-02-03T09:36:24;88203.88;;;0.40;100.00
43838;BME280;65998;46.256;7.534;2023-02-03T09:38:50;88201.09;;;0.54;100.00
43838;BME280;65998;46.256;7.534;2023-02-03T09:43:53;88200.50;;;0.87;100.00
43838;BME280;65998;46.256;7.534;2023-02-03T09:46:32;88208.53;;;0.85;100.00
43838;BME280;65998;46.256;7.534;2023-02-03T09:51:52;88212.72;;;0.88;100.00
43838;BME280;65998;46.256;7.534;2023-02-03T09:54:25;88209.72;;;0.35;91.91
43838;BME280;65998;46.256;7.534;2023-02-03T09:56:52;88212.13;;;-0.30;100.00
43838;BME280;65998;46.256;7.534;2023-02-03T09:59:20;88211.88;;;-0.50;100.00
43838;BME280;65998;46.256;7.534;2023-02-03T10:02:01;88212.84;;;-0.30;100.00
43838;BME280;65998;46.256;7.534;2023-02-03T10:04:38;88214.00;;;-0.19;100.00
43838;BME280;65998;46.256;7.534;2023-02-03T10:17:24;88219.22;;;-0.67;100.00
43838;BME280;65998;46.256;7.534;2023-02-03T10:20:04;88214.06;;;-0.47;100.00
43838;BME280;65998;46.256;7.534;2023-02-03T10:22:32;88223.25;;;-0.38;100.00
43838;BME280;65998;46.256;7.534;2023-02-03T10:25:04;88219.56;;;0.28;100.00
43838;BME280;65998;46.256;7.534;2023-02-03T10:27:32;88221.88;;;0.81;100.00
43838;BME280;65998;46.256;7.534;2023-02-03T10:30:02;88224.75;;;0.85;100.00
43838;BME280;65998;46.256;7.534;2023-02-03T10:32:29;88221.03;;;1.08;100.00
43838;BME280;65998;46.256;7.534;2023-02-03T10:34:55;88224.59;;;1.12;100.00
43838;BME280;65998;46.256;7.534;2023-02-03T10:37:25;88221.88;;;1.28;100.00
43838;BME280;65998;46.256;7.534;2023-02-03T10:39:52;88215.72;;;1.43;100.00
43838;BME280;65998;46.256;7.534;2023-02-03T10:42:18;88205.56;;;1.59;100.00
43838;BME280;65998;46.256;7.534;2023-02-03T10:49:51;88191.66;;;1.02;100.00
43838;BME280;65998;46.256;7.534;2023-02-03T10:52:25;88189.31;;;0.47;100.00
43838;BME280;65998;46.256;7.534;2023-02-03T10:54:52;88195.38;;;0.16;100.00
43838;BME280;65998;46.256;7.534;2023-02-03T10:57:20;88185.66;;;0.41;100.00
43838;BME280;65998;46.256;7.534;2023-02-03T10:59:46;88189.69;;;0.55;100.00
43838;BME280;65998;46.256;7.534;2023-02-03T11:02:46;88191.84;;;0.59;100.00
43838;BME280;65998;46.256;7.534;2023-02-03T11:07:34;88190.94;;;1.33;100.00
43838;BME280;65998;46.256;7.534;2023-02-03T11:10:00;88190.81;;;1.47;100.00
43838;BME280;65998;46.256;7.534;2023-02-03T11:12:26;88184.72;;;1.46;100.00
43838;BME280;65998;46.256;7.534;2023-02-03T11:14:52;88183.72;;;1.55;100.00
43838;BME280;65998;46.256;7.534;2023-02-03T11:17:21;88194.97;;;1.66;100.00
43838;BME280;65998;46.256;7.534;2023-02-03T11:19:49;88184.81;;;1.66;98.16
43838;BME280;65998;46.256;7.534;2023-02-03T11:27:42;88184.97;;;1.70;96.88
43838;BME280;65998;46.256;7.534;2023-02-03T11:30:30;88179.47;;;1.68;96.92
43838;BME280;65998;46.256;7.534;2023-02-03T11:32:54;88172.22;;;1.73;96.11
43838;BME280;65998;46.256;7.534;2023-02-03T11:35:22;88169.25;;;1.67;95.91
43838;BME280;65998;46.256;7.534;2023-02-03T11:37:50;88167.81;;;1.81;95.93
43838;BME280;65998;46.256;7.534;2023-02-03T11:45:16;88155.41;;;1.94;90.96
43838;BME280;65998;46.256;7.534;2023-02-03T11:47:50;88162.78;;;1.91;89.12
43838;BME280;65998;46.256;7.534;2023-02-03T11:50:33;88160.44;;;1.84;87.79
43838;BME280;65998;46.256;7.534;2023-02-03T11:55:33;88151.22;;;1.91;87.78
43838;BME280;65998;46.256;7.534;2023-02-03T11:58:16;88142.56;;;2.12;77.54
43838;BME280;65998;46.256;7.534;2023-02-03T12:03:17;88140.59;;;1.44;80.14
43838;BME280;65998;46.256;7.534;2023-02-03T12:08:22;88127.72;;;1.26;81.70
43838;BME280;65998;46.256;7.534;2023-02-03T12:16:07;88102.59;;;1.95;83.67
43838;BME280;65998;46.256;7.534;2023-02-03T12:21:28;88093.59;;;2.26;84.60
43838;BME280;65998;46.256;7.534;2023-02-03T12:26:30;88086.63;;;2.03;75.11
43838;BME280;65998;46.256;7.534;2023-02-03T12:29:00;88091.81;;;1.97;75.14
43838;BME280;65998;46.256;7.534;2023-02-03T12:32:04;88094.91;;;2.07;82.04
43838;BME280;65998;46.256;7.534;2023-02-03T12:34:23;88089.09;;;2.33;80.68
43838;BME280;65998;46.256;7.534;2023-02-03T12:36:54;88093.06;;;2.49;75.42
43838;BME280;65998;46.256;7.534;2023-02-03T12:42:12;88091.88;;;2.35;80.00
43838;BME280;65998;46.256;7.534;2023-02-03T12:49:49;88078.81;;;1.93;79.35
43838;BME280;65998;46.256;7.534;2023-02-03T12:57:39;88070.66;;;2.29;81.86
43838;BME280;65998;46.256;7.534;2023-02-03T13:00:09;88072.91;;;2.54;78.85
43838;BME280;65998;46.256;7.534;2023-02-03T13:05:27;88066.69;;;2.52;75.37
43838;BME280;65998;46.256;7.534;2023-02-03T13:07:58;88063.25;;;2.12;72.68
43838;BME280;65998;46.256;7.534;2023-02-03T13:12:54;88064.31;;;2.22;66.04
43838;BME280;65998;46.256;7.534;2023-02-03T13:15:23;88058.69;;;2.36;71.63
43838;BME280;65998;46.256;7.534;2023-02-03T13:20:23;88054.94;;;2.45;77.86
43838;BME280;65998;46.256;7.534;2023-02-03T13:22:50;88057.88;;;2.51;80.97
43838;BME280;65998;46.256;7.534;2023-02-03T13:25:23;88042.63;;;2.42;82.02
43838;BME280;65998;46.256;7.534;2023-02-03T13:33:48;88037.47;;;2.70;73.57
43838;BME280;65998;46.256;7.534;2023-02-03T13:43:44;88044.84;;;2.87;69.80
43838;BME280;65998;46.256;7.534;2023-02-03T13:46:21;88045.47;;;2.86;71.27
43838;BME280;65998;46.256;7.534;2023-02-03T13:48:49;88053.53;;;3.04;70.75
43838;BME280;65998;46.256;7.534;2023-02-03T13:51:16;88051.03;;;2.90;67.48
43838;BME280;65998;46.256;7.534;2023-02-03T13:53:44;88047.56;;;2.87;69.90
43838;BME280;65998;46.256;7.534;2023-02-03T13:56:24;88054.19;;;2.82;69.62
43838;BME280;65998;46.256;7.534;2023-02-03T14:04:00;88042.06;;;2.85;76.96
43838;BME280;65998;46.256;7.534;2023-02-03T14:09:02;88042.25;;;2.92;80.59
43838;BME280;65998;46.256;7.534;2023-02-03T14:19:04;88035.31;;;2.86;64.59
43838;BME280;65998;46.256;7.534;2023-02-03T14:21:44;88030.09;;;2.93;62.44
43838;BME280;65998;46.256;7.534;2023-02-03T14:24:11;88042.41;;;2.96;58.36
43838;BME280;65998;46.256;7.534;2023-02-03T14:26:42;88049.78;;;2.93;70.27
43838;BME280;65998;46.256;7.534;2023-02-03T14:29:22;88053.78;;;3.12;72.95
43838;BME280;65998;46.256;7.534;2023-02-03T14:31:56;88054.03;;;2.98;77.97
43838;BME280;65998;46.256;7.534;2023-02-03T14:37:40;88042.13;;;2.87;76.86
43838;BME280;65998;46.256;7.534;2023-02-03T14:50:36;88037.31;;;2.86;75.41
43838;BME280;65998;46.256;7.534;2023-02-03T14:55:39;88035.16;;;3.02;76.35
43838;BME280;65998;46.256;7.534;2023-02-03T15:06:37;88053.13;;;3.33;65.17
43838;BME280;65998;46.256;7.534;2023-02-03T15:09:11;88057.31;;;3.36;71.19
43838;BME280;65998;46.256;7.534;2023-02-03T15:11:43;88049.09;;;3.34;72.72
43838;BME280;65998;46.256;7.534;2023-02-03T15:14:25;88047.31;;;3.01;65.96
43838;BME280;65998;46.256;7.534;2023-02-03T15:19:24;88044.44;;;2.55;59.98
43838;BME280;65998;46.256;7.534;2023-02-03T15:21:51;88032.47;;;2.63;67.91
43838;BME280;65998;46.256;7.534;2023-02-03T15:24:18;88029.06;;;2.82;74.98
43838;BME280;65998;46.256;7.534;2023-02-03T15:26:48;88031.09;;;2.62;62.68
43838;BME280;65998;46.256;7.534;2023-02-03T15:29:18;88040.53;;;2.80;69.58
43838;BME280;65998;46.256;7.534;2023-02-03T15:31:48;88044.50;;;2.77;77.24
43838;BME280;65998;46.256;7.534;2023-02-03T15:34:22;88047.50;;;2.46;80.91